Forum - i mitici sud

tutti gli utenti del gruppo possono partecipare le discussione con riferimento a sesso o non conforme a chatta.it verranno imossi

Amministratore
F.ranco52 27/01/2019 ore 08:53 Quota

(nessuno) Nowcasting Domenica 27 Gennaio 2019

Buongiorno e Buona Domenica a tutti


Notizie Meteo dell'Italia da il Meteo .It


http://ilMeteo.It


la Situazione Italiana vista dal Sat









il Radar Europeo









Brindisi

METAR LIBR 270650Z 23009KT CAVOK 04/02 Q1008=

METAR di Brindisi del 27 alle 6,50

Vento da 230° W SW 9 nodi (16,668 km) Visibilitā 10000 m
Base delle Nubi e Visibilitā OK
Temp 4°C Dew 2°C Ur 36% hPa 1008

Brindisi

TAF LIBR 270500Z 2706/2806 34012KT 9999 SCT020 BECMG 2709/2712 22018KT BECMG 2802/2804 34018G28KT=

le TAF di Brindisi delle 5z Previsioni dalle 6z alle 6z del 28

Vento da 340° N NW 12 nodi (22,224 km) Visibilitā 10000 m
Copertura 3-4 ottavi da 2000 piedi (609,6 m)
le Condizioni Diverranno fra le 9z e le 12z
Vento da 220° S SW 18 nodi (33,336 km)
le Condizioni Diverranno il 28 fra le 02z e le 04z
Vento da 340° N NW 18 nodi (33,336 km)
Raffiche da 28 nodi (51,856 km)


Gioia del Colle

METAR LIBV 270655Z 17004KT CAVOK 02/M01 Q1007 RMK FEW FEW200 VIS MIN 9999 WIND THR32 16004KT WIND THR14 17004KT BLU=

METAR di Gioia del Colle del 27 alle 6,55

Vento da 170° S SE 4 nodi (7,408 km) Visibilitā 10000 m
Base delle Nubi e Visibilitā OK
Temp 2°C Dew -1°C Ur 80% hPa 1007
Aumento della Nuvolositā a 1-2 ottavi
Copertura 1-2 ottavi da 20000 piedi (6096 m)
Visibilitā Minima 10000 m


Gioia del Colle

le TAF di Gioia del Colle delle 5z Previsioni dalle 6z alle 15z

Dati non Pervenuti
2587296
Buongiorno e Buona Domenica a tutti Notizie Meteo dell'Italia da il Meteo .It http://ilMeteo.It la Situazione Italiana vista dal...
Discussione
27/01/2019 08:53:56
none
  • mi piace
    iLikeIt
    PublicVote
    1

Vuoi partecipare anche tu a questa discussione?

Rispondi per lasciare il tuo messaggio in questa discussione